• Join FlightAware (Why Join?)
  • Login
  • US Flag 
12:33AM EDT


 

Airport Tracker/Info


-or-


 

Live Flight TrackerFlight Track Log ✈ SWA718 ✈ 22-Apr-2013 ✈ KMDW - KOMA

Flight Track Log - Related Links

Times and Time Zones

All times are in EDT time to prevent confusion due to time zone crossing. See the SWA718 flight status page for this flight to view local times or setup timezone preferences in your user account.

Time Position Orientation Groundspeed Altitude Reporting Facility
EDT Latitude Longitude Course Direction KTS MPH feet Rate Location/Type
11:23PM 41.7167 -87.7333 205° Southwest 248 285 4,900  Level Chicago TRACON
11:24PM 41.7500 -87.8333 294° West 289 333 9,100 3,840 Climbing Chicago TRACON
11:25PM 41.7878 -87.9089 304° West 289 333 12,400 2,040 Climbing Chicago Center
11:26PM 41.8261 -88.0064 298° West 296 341 12,900 900 Climbing Chicago Center
11:27PM 41.8267 -88.1183 270° West 299 344 14,300 1,080 Climbing Chicago Center
11:28PM 41.8597 -88.2425 290° West 356 410 15,100 1,860 Climbing Chicago Center
11:29PM 41.8961 -88.3669 291° West 362 417 18,100 3,000 Climbing Chicago Center
11:30PM 41.9089 -88.5019 277° West 378 435 21,200 3,240 Climbing Chicago Center
11:31PM 41.9003 -88.6717 266° West 383 441 24,800 2,940 Climbing Chicago Center
11:32PM 41.8922 -88.8164 266° West 392 451 27,200 2,160 Climbing Chicago Center
11:33PM 41.8847 -88.9672 266° West 405 466 29,300 2,340 Climbing Chicago Center
11:34PM 41.8764 -89.1175 266° West 407 468 32,000 2,400 Climbing Chicago Center
11:35PM 41.8681 -89.2661 266° West 405 466 34,300 1,920 Climbing Chicago Center
11:36PM 41.8600 -89.4111 266° West 394 453 36,000 780 Climbing Chicago Center
11:37PM 41.8517 -89.5556 266° West 389 448 36,000  Level Chicago Center
11:38PM 41.8428 -89.6989 265° West 390 449 36,000  Level Chicago Center
11:39PM 41.8342 -89.8450 266° West 394 453 36,000  Level Chicago Center
11:40PM 41.8261 -89.9942 266° West 394 453 36,000  Level Chicago Center
11:41PM 41.8178 -90.1375 266° West 390 449 36,000  Level Chicago Center
11:42PM 41.8053 -90.3083 264° West 385 443 36,000  Level Chicago Center
11:43PM 41.7917 -90.4508 263° West 403 464 36,000  Level Chicago Center
11:44PM 41.7792 -90.5919 263° West 389 448 36,000  Level Chicago Center
11:45PM 41.7664 -90.7378 263° West 384 442 36,000  Level Chicago Center
11:46PM 41.7553 -90.8767 264° West 380 437 36,000  Level Chicago Center
11:47PM 41.7436 -91.0167 264° West 381 438 36,000  Level Chicago Center
11:49PM 41.7311 -91.1564 263° West 381 438 36,000  Level Chicago Center
11:50PM 41.7189 -91.2944 263° West 377 434 36,000  Level Chicago Center
11:51PM 41.7058 -91.4342 263° West 379 436 36,000  Level Chicago Center
11:52PM 41.6931 -91.5742 263° West 381 438 36,000  Level Chicago Center
11:53PM 41.6808 -91.7131 263° West 379 436 36,000  Level Chicago Center
11:54PM 41.6650 -91.8786 263° West 376 433 36,000  Level Chicago Center
11:55PM 41.6511 -92.0164 262° West 377 434 36,000  Level Chicago Center
11:56PM 41.6375 -92.1511 262° West 372 428 36,000  Level Chicago Center
11:57PM 41.6244 -92.2869 263° West 372 428 36,000  Level Chicago Center
11:58PM 41.6103 -92.4242 262° West 374 430 36,000  Level Chicago Center
11:59PM 41.5967 -92.5633 263° West 376 433 36,000  Level Chicago Center
11:59PM 41.5886 -92.6556 263° West 374 430 36,000  Level Minneapolis Center
12:00AM 41.5736 -92.7900 262° West 372 428 36,000  Level Minneapolis Center
12:01AM 41.5606 -92.9244 263° West 370 426 36,000  Level Minneapolis Center
12:02AM 41.5464 -93.0578 262° West 369 425 36,000  Level Minneapolis Center
12:03AM 41.5317 -93.1933 262° West 371 427 36,000  Level Minneapolis Center
12:04AM 41.5172 -93.3256 262° West 368 423 36,000  Level Minneapolis Center
12:05AM 41.5056 -93.4336 262° West 369 425 36,000  Level Minneapolis Center
12:06AM 41.4883 -93.5903 262° West 361 415 36,000  Level Minneapolis Center
12:07AM 41.4714 -93.7508 262° West 365 420 36,000 -240 Level Minneapolis Center
12:08AM 41.4550 -93.8828 261° West 365 420 35,600 -1,920 Descending Minneapolis Center
12:09AM 41.4414 -94.0153 262° West 364 419 32,200 -3,600 Descending Minneapolis Center
12:10AM 41.4261 -94.1517 262° West 371 427 28,400 -3,180 Descending Minneapolis Center
12:11AM 41.4103 -94.2878 261° West 375 432 25,900 -2,340 Descending Minneapolis Center
12:12AM 41.3928 -94.4122 259° West 361 415 23,800 -2,100 Descending Minneapolis Center
12:13AM 41.3786 -94.5275 261° West 338 389 21,700 -2,040 Descending Minneapolis Center
12:14AM 41.3683 -94.6408 263° West 318 366 19,700 -1,920 Descending Minneapolis Center
12:15AM 41.3544 -94.7533 261° West 311 358 17,800 -2,400 Descending Minneapolis Center
12:16AM 41.3583 -94.8314 274° West 316 364 16,200 -1,800 Descending Minneapolis Center
12:16AM 41.3403 -94.8719 239° Southwest 320 368 16,000 -780 Descending Minneapolis Center
12:18AM 41.3258 -94.9808 260° West 307 353 15,000 -1,560 Descending Minneapolis Center
12:18AM 41.3200 -95.1086 267° West 291 335 13,000 -1,140 Descending Minneapolis Center
12:19AM 41.3078 -95.1992 260° West 237 273 12,800 -1,380 Descending Minneapolis Center
12:20AM 41.2886 -95.2819 253° West 253 291 10,400 -2,040 Descending Minneapolis Center
12:21AM 41.2639 -95.3739 250° West 272 313 8,900 -1,560 Descending Minneapolis Center
12:22AM 41.2408 -95.4656 252° West 261 300 7,300 -1,740 Descending Minneapolis Center
12:23AM 41.2175 -95.5517 250° West 252 290 5,500 -1,980 Descending Minneapolis Center
12:24AM 41.1753 -95.6369 237° Southwest 283 326 3,400 -1,320 Descending Minneapolis Center
12:25AM 41.1519 -95.7228 250° West 242 278 2,900 -300 Descending Minneapolis Center
12:26AM 41.1742 -95.7756 299° West 136 157 2,900  Level Minneapolis Center
12:27AM 41.2056 -95.8053 325° Northwest 118 136 3,000 -240 Climbing Minneapolis Center
12:28AM 41.2344 -95.8322 325° Northwest 121 139 2,500 -600 Descending Minneapolis Center
12:29AM 41.2594 -95.8600 320° Northwest 119 137 1,800 -660 Descending Minneapolis Center
12:31AM 41.2881 -95.8817 330° Northwest 120 138 1,100 -600 Descending Minneapolis Center
12:33AM 41.3000 -95.8833 320° Northwest  Level FlightAware Approximate